Aviation Digital Data Service (ADDS)

Output produced by METARs form (1455 UTC 21 May 2019)
found at http://www.aviationweather.gov/metar/data/
 
Forecast for: RJOM (MATSUYAMA AIRPOR, JP)
Text: TAF RJOM 211109Z 2112/2218 12006KT 9999 FEW035
Forecast period: 1200 UTC 21 May 2019 to 0000 UTC 22 May 2019
Forecast type: FROM: standard forecast or significant change
Winds: from the ESE (120 degrees) at 7 MPH (6 knots; 3.1 m/s)
Visibility: 6 or more miles 10+ km)
Ceiling: at least 12,000 feet AGL
Clouds: few clouds at 3500 feet AGL
Weather: no significant weather forecast for this period
Text: BECMG 2200/2203 24008KT
Forecast period: 0000 to 0900 UTC 22 May 2019
Forecast type: BECOMING: Conditions expected to become as follows by 0300 UTC 22 May 2019
Winds: from the WSW (240 degrees) at 9 MPH (8 knots; 4.1 m/s)
Visibility: 6 or more miles 10+ km)
Ceiling: at least 12,000 feet AGL
Clouds: few clouds at 3500 feet AGL
Weather: no significant weather forecast for this period
Text: BECMG 2209/2212 12007KT
Forecast period: 0900 to 1800 UTC 22 May 2019
Forecast type: BECOMING: Conditions expected to become as follows by 1200 UTC 22 May 2019
Winds: from the ESE (120 degrees) at 8 MPH (7 knots; 3.6 m/s)
Visibility: 6 or more miles 10+ km)
Ceiling: at least 12,000 feet AGL
Clouds: few clouds at 3500 feet AGL
Weather: no significant weather forecast for this period